ADDS METAR Data INFO
IDs: Format: Raw Decoded Include TAF

Data at: 0317 UTC 21 Sep 2017

KFWS 210255Z AUTO 16008KT 10SM CLR 30/20 A2989 RMK AO2 T02990204
KFWS 210235Z AUTO 15008KT 10SM CLR 30/20 A2988 RMK AO2 LTG DSNT W T03000202
KFWS 210215Z AUTO 15009KT 10SM CLR 31/20 A2987 RMK AO2 T03060201
KFWS 210155Z AUTO 15009KT 10SM CLR 31/20 A2987 RMK AO2 T03100202
KFWS 210135Z AUTO 15010G14KT 7SM CLR 31/20 A2985 RMK AO2 T03110201
KFWS 210115Z AUTO 15008KT 7SM CLR 32/20 A2985 RMK AO2 T03150202
KFWS 210055Z AUTO 15008KT 7SM CLR 32/20 A2984 RMK AO2 T03190200
KFWS 202354Z 14009G17KT 10SM CLR 34/19 A2982
KFWS 202247Z 16012KT 10SM FEW055 36/20 A2982
KFWS 202151Z 15014G18KT 10SM FEW055 36/20 A2982
KFWS 202051Z 18010G17KT 10SM SCT055 37/20 A2983
KFWS 201951Z 17011G18KT 10SM SCT040 35/21 A2985
KFWS 201849Z 14016G21KT 10SM FEW060 36/21 A2986
KFWS 201748Z 17011G18KT 10SM FEW045 34/21 A2989
KFWS 201648Z 15011G17KT 10SM FEW045 33/21 A2991
KFWS 201549Z 18010G18KT 10SM FEW040 31/22 A2992
KFWS 201450Z 18013G20KT 10SM SCT018 29/22 A2992
KFWS 201347Z 17014G19KT 10SM BKN014 26/22 A2991
KFWS 201258Z 16012KT 10SM SCT014 25/22 A2990
KFWS 201145Z 16010KT 10SM CLR 25/21 A2988
KFWS 201135Z AUTO 17010KT 10SM CLR 25/21 A2988 RMK AO2 T02480212
KFWS 201115Z AUTO 17009G14KT 10SM CLR 25/21 A2987 RMK AO2 T02480210
KFWS 201055Z AUTO 16008KT 10SM CLR 25/21 A2987 RMK AO2 T02500210
KFWS 201035Z AUTO 17008KT 10SM CLR 25/21 A2987 RMK AO2 T02520210
KFWS 201015Z AUTO 17011G14KT 10SM CLR 25/21 A2986 RMK AO2 T02540210
KFWS 200955Z AUTO 18010KT 10SM CLR 26/21 A2986 RMK AO2 T02550210
KFWS 200935Z AUTO 18009KT 10SM CLR 26/21 A2986 RMK AO2 T02560211
KFWS 200915Z AUTO 18008KT 10SM CLR 26/21 A2986 RMK AO2 T02570212
KFWS 200855Z AUTO 17009G14KT 10SM CLR 26/21 A2985 RMK AO2 T02570212
KFWS 200835Z AUTO 17009KT 10SM CLR 26/21 A2985 RMK AO2 T02570211
KFWS 200815Z AUTO 17008KT 10SM CLR 26/21 A2986 RMK AO2 T02600210
KFWS 200755Z AUTO 17009KT 10SM CLR 26/21 A2986 RMK AO2 T02640211
KFWS 200735Z AUTO 16010G16KT 10SM CLR 27/21 A2986 RMK AO2 T02670212
KFWS 200715Z AUTO 16009KT 10SM CLR 27/21 A2986 RMK AO2 T02670210
KFWS 200655Z AUTO 16008KT 10SM CLR 27/21 A2986 RMK AO2 T02670210
KFWS 200635Z AUTO 16006KT 10SM CLR 26/21 A2986 RMK AO2 T02640208
KFWS 200615Z AUTO 15005KT 10SM CLR 26/21 A2985 RMK AO2 T02600206
KFWS 200555Z AUTO 15005KT 10SM CLR 26/21 A2985 RMK AO2 T02560205 10330 20256 403700230
KFWS 200535Z AUTO 00000KT 10SM CLR 26/21 A2986 RMK AO2 T02570205
KFWS 200515Z AUTO 00000KT 10SM CLR 27/21 A2987 RMK AO2 T02690205
KFWS 200455Z AUTO 00000KT 10SM BKN050 BKN060 28/21 A2986 RMK AO2 T02770205
KFWS 200435Z AUTO 00000KT 10SM OVC050 28/21 A2987 RMK AO2 T02780205
KFWS 200415Z AUTO 00000KT 10SM BKN050 28/21 A2988 RMK AO2 T02830208
KFWS 200355Z AUTO 00000KT 10SM SCT070 28/21 A2989 RMK AO2 LTG DSNT N T02820208
KFWS 200335Z AUTO 00000KT 10SM SCT070 28/21 A2990 RMK AO2 LTG DSNT N AND NW T02840208
KFWS 200315Z AUTO 00000KT 10SM CLR 29/21 A2988 RMK AO2 LTG DSNT N AND NW T02880207
KFWS 200255Z AUTO 00000KT 10SM CLR 29/21 A2987 RMK AO2 LTG DSNT NW T02930206
KFWS 200235Z AUTO 17007KT 10SM CLR 30/21 A2986 RMK AO2 LTG DSNT NW T03000206
KFWS 200215Z AUTO 17008KT 10SM CLR 30/21 A2986 RMK AO2 LTG DSNT N AND NW T03020205
KFWS 200155Z AUTO 17010G17KT 10SM CLR 31/20 A2984 RMK AO2 LTG DSNT NW T03060201
KFWS 200135Z AUTO 16011KT 10SM CLR 31/20 A2982 RMK AO2 LTG DSNT NW T03110198
KFWS 200115Z AUTO 16010G14KT 10SM CLR 31/20 A2981 RMK AO2 LTG DSNT NW T03120195
KFWS 200055Z AUTO 16009G14KT 10SM CLR 32/20 A2981 RMK AO2 T03160195
KFWS 192351Z 16014G24KT 10SM FEW060 33/19 A2979
KFWS 192255Z 15011G17KT 10SM FEW060 34/18 A2978
KFWS 192154Z 16011G18KT 10SM SCT060 36/18 A2979
KFWS 192053Z 19011KT 10SM BKN060 37/18 A2982
KFWS 191951Z 18015KT 10SM BKN050 36/20 A2985
KFWS 191848Z 18010G16KT 10SM SCT040 35/20 A2988
KFWS 191750Z 19012G19KT 10SM FEW040 34/22 A2992
KFWS 191647Z 18010G15KT 10SM SCT025 31/22 A2995
KFWS 191548Z 18012G17KT 7SM SCT018 29/22 A2995